Gordon, Nebraska
Current Conditions -  °F | °C
As of 10:52 AM on Friday 31 Oct 2014 (Local Time) from KIEN Reporting Station
Clear Clear  
Wind Chill: 29°   Ceiling: Unl
Heat Index: 37°   Visibility: 10mi
Dew Point: 28°   Wind: 13mph
Humidity: 70%   Direction: 170°S
Pressure: 30.35"   Gusts: 20mph
Location:  42.8°N, 102.2°W
Report Text: KIEN 311652Z AUTO 17011G17KT 10SM CLR 03/M02 A3035 RMK AO2 SLP307 T00281022
Loading
Personal Weather Stations






























Interactive Weather Map
Tropical Storm Tracking
New forecast layout! Learn more

10-Day Weather Forecast

Advertisements
Track Severe Weather on mobile